Time;durP1;ratioP1;P1;durP2;ratioP2;P2;SDS_P1;SDS_P2;PMS_P1;PMS_P2;Temp;Humidity;BMP_temperature;BMP_pressure;BME280_temperature;BME280_humidity;BME280_pressure;Samples;Min_cycle;Max_cycle;Signal;HPM_P1;HPM_P2
2021/05/17 00:00:41;;;;;;;4.63;3.08;;;537.70;1664.00;;;;;;4811030;29;20493;-84
2021/05/17 00:03:09;;;;;;;7.18;3.08;;;537.70;1664.00;;;;;;4828074;29;20050;-84
2021/05/17 00:05:38;;;;;;;4.80;3.00;;;537.70;1664.00;;;;;;4827688;29;20034;-84
2021/05/17 00:08:05;;;;;;;7.15;3.10;;;537.60;1664.00;;;;;;4828363;29;20049;-83
2021/05/17 00:10:33;;;;;;;4.40;3.33;;;537.70;1664.00;;;;;;4813095;29;20038;-83
2021/05/17 00:12:59;;;;;;;4.38;3.03;;;537.70;1664.00;;;;;;4825073;29;20121;-83
2021/05/17 00:15:26;;;;;;;4.20;2.72;;;537.70;1664.00;;;;;;4806633;29;20031;-84
2021/05/17 00:17:55;;;;;;;3.92;2.70;;;537.70;1664.00;;;;;;4852761;29;20048;-83
2021/05/17 00:20:22;;;;;;;4.28;3.00;;;537.70;1664.00;;;;;;4881220;29;20036;-83
2021/05/17 00:22:48;;;;;;;5.20;2.97;;;537.70;1664.00;;;;;;4864358;29;20059;-83
2021/05/17 00:25:15;;;;;;;6.43;3.10;;;537.70;1664.00;;;;;;4865876;29;20087;-84
2021/05/17 00:27:42;;;;;;;2.95;2.45;;;537.70;1664.00;;;;;;4883554;29;20072;-83
2021/05/17 00:30:10;;;;;;;4.57;2.85;;;537.70;1664.00;;;;;;4865341;29;20069;-83
2021/05/17 00:32:40;;;;;;;4.82;2.60;;;537.70;1664.00;;;;;;4866443;29;20071;-85
2021/05/17 00:35:09;;;;;;;4.60;3.22;;;537.70;1664.00;;;;;;4867098;29;20485;-83
2021/05/17 00:37:35;;;;;;;4.72;2.78;;;537.70;1664.00;;;;;;4880980;29;20048;-82
2021/05/17 00:40:03;;;;;;;4.45;2.45;;;537.60;1664.00;;;;;;4864486;29;20457;-83
2021/05/17 00:42:29;;;;;;;5.00;3.08;;;537.60;1664.00;;;;;;4864431;29;20124;-83
2021/05/17 00:44:56;;;;;;;4.28;2.88;;;537.60;1664.00;;;;;;4866732;29;20045;-82
2021/05/17 00:47:24;;;;;;;4.63;2.95;;;537.60;1664.00;;;;;;4891234;29;20044;-82
2021/05/17 00:49:50;;;;;;;3.78;2.95;;;537.60;1664.00;;;;;;4872780;29;20037;-83
2021/05/17 00:52:19;;;;;;;5.35;2.83;;;537.60;1664.00;;;;;;4865743;29;20040;-84
2021/05/17 00:54:46;;;;;;;4.55;3.10;;;537.60;1664.00;;;;;;4867703;29;20035;-83
2021/05/17 00:57:12;;;;;;;3.90;3.08;;;537.60;1664.00;;;;;;4866657;29;20045;-83
2021/05/17 00:59:38;;;;;;;4.35;2.92;;;537.60;1664.00;;;;;;4865122;29;20045;-83
2021/05/17 01:02:04;;;;;;;5.35;2.92;;;537.60;1664.00;;;;;;4864951;29;20089;-83
2021/05/17 01:04:31;;;;;;;3.75;2.50;;;537.70;1664.00;;;;;;4881087;29;20093;-83
2021/05/17 01:07:01;;;;;;;6.15;2.60;;;512.70;1638.40;;;;;;4864540;29;20512;-83
2021/05/17 01:09:52;;;;;;;3.95;2.70;;;537.60;1664.00;;;;;;4880389;29;20033;-83
2021/05/17 01:12:33;;;;;;;4.90;3.30;;;537.60;1664.00;;;;;;4864205;29;20080;-83
2021/05/17 01:15:04;;;;;;;4.63;2.97;;;537.60;1664.00;;;;;;4864649;29;20041;-84
2021/05/17 01:17:30;;;;;;;3.10;2.42;;;537.60;1664.00;;;;;;4865307;29;20097;-83
2021/05/17 01:20:54;;;;;;;6.47;2.85;;;537.60;1664.00;;;;;;4863604;29;20128;-83
2021/05/17 01:26:36;;;;;;;6.13;3.65;;;537.60;1664.00;;;;;;4881292;29;19915;-83
2021/05/17 01:29:37;;;;;;;3.42;2.40;;;512.90;1638.40;;;;;;4862842;29;20048;-83
2021/05/17 01:32:03;;;;;;;5.00;2.78;;;512.90;1638.40;;;;;;4864027;29;20045;-83
2021/05/17 01:38:18;;;;;;;4.97;2.88;;;512.90;1638.40;;;;;;4880835;29;20097;-83
2021/05/17 01:41:31;;;;;;;4.30;2.65;;;512.90;1638.40;;;;;;4864262;29;20041;-83
2021/05/17 01:44:18;;;;;;;5.43;2.57;;;512.80;1638.40;;;;;;4807633;29;20511;-83
2021/05/17 01:46:47;;;;;;;6.47;3.20;;;512.80;1664.00;;;;;;4809159;29;20059;-83
2021/05/17 01:49:38;;;;;;;3.80;2.60;;;512.80;1638.40;;;;;;4788582;30;20036;-84
2021/05/17 01:52:23;;;;;;;5.18;2.65;;;512.80;1638.40;;;;;;4771901;30;20049;-84
2021/05/17 01:54:52;;;;;;;3.35;2.47;;;512.80;1638.40;;;;;;4775788;30;20044;-83
2021/05/17 01:57:55;;;;;;;4.28;2.42;;;512.80;1638.40;;;;;;4776041;30;20059;-84
2021/05/17 02:00:58;;;;;;;3.17;2.53;;;512.80;1638.40;;;;;;4805931;29;20035;-84
2021/05/17 02:03:39;;;;;;;3.72;2.83;;;512.80;1638.40;;;;;;4808165;29;20042;-84
2021/05/17 02:06:10;;;;;;;3.65;2.33;;;512.80;1638.40;;;;;;4793353;29;20039;-84
2021/05/17 02:08:43;;;;;;;2.55;2.20;;;512.80;1638.40;;;;;;4793087;29;20047;-83
2021/05/17 02:11:17;;;;;;;4.95;2.50;;;512.80;1638.40;;;;;;4794131;29;20065;-83
2021/05/17 02:13:44;;;;;;;2.53;2.25;;;512.80;1638.40;;;;;;4792479;29;20512;-84
2021/05/17 02:16:15;;;;;;;4.55;2.88;;;512.80;1638.40;;;;;;4794060;29;20554;-84
2021/05/17 02:18:45;;;;;;;3.80;2.58;;;512.80;1638.40;;;;;;4797220;29;20384;-84
2021/05/17 02:21:16;;;;;;;4.35;2.67;;;512.80;1638.40;;;;;;4787926;30;20593;-83
2021/05/17 02:23:42;;;;;;;2.92;2.30;;;512.80;1638.40;;;;;;4787138;30;20039;-83
2021/05/17 02:26:10;;;;;;;5.30;2.50;;;512.70;1638.40;;;;;;4788964;29;20038;-84
2021/05/17 02:28:58;;;;;;;8.80;3.00;;;512.80;1638.40;;;;;;4818389;29;20039;-83
2021/05/17 02:31:33;;;;;;;4.57;3.15;;;512.80;1638.40;;;;;;4808849;29;20558;-83
2021/05/17 02:34:02;;;;;;;4.32;2.50;;;512.80;1638.40;;;;;;4820467;29;20512;-83
2021/05/17 02:36:52;;;;;;;6.88;2.72;;;512.80;1638.40;;;;;;4847395;29;20606;-83
2021/05/17 02:39:24;;;;;;;3.72;2.92;;;512.80;1638.40;;;;;;4848078;29;20486;-83
2021/05/17 02:41:54;;;;;;;3.78;2.55;;;512.80;1638.40;;;;;;4847884;29;20041;-83
2021/05/17 02:44:20;;;;;;;3.83;2.55;;;512.80;1638.40;;;;;;4848071;29;20098;-84
2021/05/17 02:46:49;;;;;;;3.55;2.45;;;512.80;1638.40;;;;;;4865963;29;20539;-84
2021/05/17 02:49:16;;;;;;;3.67;2.55;;;512.80;1638.40;;;;;;4865770;29;20041;-83
2021/05/17 02:51:42;;;;;;;5.72;2.58;;;512.80;1638.40;;;;;;4864952;29;20421;-84
2021/05/17 02:54:14;;;;;;;3.50;2.83;;;512.90;1638.40;;;;;;4865153;29;20033;-83
2021/05/17 02:57:13;;;;;;;3.38;2.38;;;512.90;1638.40;;;;;;4865375;29;20041;-83
2021/05/17 03:00:03;;;;;;;3.60;2.20;;;512.80;1638.40;;;;;;4793020;29;20050;-84
2021/05/17 03:02:32;;;;;;;2.75;2.13;;;512.80;1638.40;;;;;;4792737;29;20045;-84
2021/05/17 03:05:01;;;;;;;3.08;2.30;;;512.90;1638.40;;;;;;4793303;29;20047;-82
2021/05/17 03:07:35;;;;;;;4.68;2.55;;;512.80;1638.40;;;;;;4792100;29;20043;-83
2021/05/17 03:10:03;;;;;;;4.32;2.42;;;512.80;1638.40;;;;;;4792550;29;20036;-84
2021/05/17 03:12:34;;;;;;;3.58;2.45;;;512.80;1638.40;;;;;;4792017;29;20137;-84
2021/05/17 03:15:01;;;;;;;2.65;2.30;;;512.80;1638.40;;;;;;4792912;29;20086;-84
2021/05/17 03:17:27;;;;;;;3.92;2.28;;;512.80;1638.40;;;;;;4792576;29;20547;-84
2021/05/17 03:19:53;;;;;;;5.47;2.92;;;512.80;1638.40;;;;;;4791376;29;20038;-83
2021/05/17 03:22:22;;;;;;;4.15;2.45;;;512.80;1638.40;;;;;;4792095;29;20053;-82
2021/05/17 03:24:56;;;;;;;3.47;2.50;;;512.80;1638.40;;;;;;4793008;29;20035;-82
2021/05/17 03:27:30;;;;;;;3.35;2.45;;;512.80;1638.40;;;;;;4791629;29;20043;-82
2021/05/17 03:29:57;;;;;;;3.25;2.13;;;512.80;1638.40;;;;;;4792944;29;20035;-82
2021/05/17 03:32:24;;;;;;;2.97;2.15;;;512.80;1638.40;;;;;;4793169;29;20512;-82
2021/05/17 03:34:51;;;;;;;2.72;2.08;;;512.80;1638.40;;;;;;4794201;29;20035;-82
2021/05/17 03:37:17;;;;;;;2.60;2.20;;;512.60;1638.40;;;;;;4847153;29;20434;-82
2021/05/17 03:39:45;;;;;;;3.92;2.55;;;512.80;1638.40;;;;;;4864792;29;20033;-82
2021/05/17 03:42:11;;;;;;;3.50;2.78;;;512.80;1638.40;;;;;;4864926;29;20037;-83
2021/05/17 03:44:37;;;;;;;5.28;2.25;;;512.80;1638.40;;;;;;4864576;29;20557;-82
2021/05/17 03:47:04;;;;;;;3.22;2.05;;;512.80;1638.40;;;;;;4865874;29;20047;-83
2021/05/17 03:49:32;;;;;;;3.20;2.33;;;512.80;1638.40;;;;;;4865498;29;20115;-83
2021/05/17 03:51:58;;;;;;;4.68;2.40;;;512.60;1638.40;;;;;;4864900;29;20041;-83
2021/05/17 03:54:25;;;;;;;4.70;2.42;;;512.80;1638.40;;;;;;4865385;29;20033;-83
2021/05/17 03:56:51;;;;;;;3.45;2.42;;;512.80;1638.40;;;;;;4866515;29;20045;-84
2021/05/17 03:59:17;;;;;;;3.28;2.50;;;512.80;1638.40;;;;;;4866265;29;20124;-83
2021/05/17 04:01:46;;;;;;;2.80;2.20;;;512.80;1612.80;;;;;;4861760;29;20046;-83
2021/05/17 04:04:13;;;;;;;3.90;2.30;;;512.80;1612.80;;;;;;4849881;29;20041;-84
2021/05/17 04:06:48;;;;;;;2.88;2.40;;;512.80;1612.80;;;;;;4851635;29;20040;-83
2021/05/17 04:14:42;;;;;;;3.58;2.70;;;512.80;1638.40;;;;;;4857004;29;20129;-82
2021/05/17 04:17:08;;;;;;;3.20;2.45;;;512.80;1638.40;;;;;;4846666;29;20519;-82
2021/05/17 04:19:34;;;;;;;3.10;2.35;;;512.80;1638.40;;;;;;4847253;29;20029;-82
2021/05/17 04:22:00;;;;;;;4.13;2.42;;;512.80;1612.80;;;;;;4846816;29;20049;-83
2021/05/17 04:24:26;;;;;;;4.38;2.50;;;512.80;1638.40;;;;;;4846247;29;20033;-83
2021/05/17 04:26:52;;;;;;;3.33;2.03;;;512.80;1612.80;;;;;;4846309;29;20538;-83
2021/05/17 04:29:18;;;;;;;3.63;2.33;;;512.80;1612.80;;;;;;4846599;29;20082;-83
2021/05/17 04:31:44;;;;;;;3.65;2.00;;;512.90;1612.80;;;;;;4860949;29;20101;-83
2021/05/17 04:34:10;;;;;;;3.80;2.33;;;512.90;1612.80;;;;;;4865079;29;20100;-83
2021/05/17 04:36:37;;;;;;;3.15;2.20;;;512.90;1612.80;;;;;;4864815;29;20076;-84
2021/05/17 04:39:04;;;;;;;3.85;2.40;;;512.90;1612.80;;;;;;4865519;29;20085;-83
2021/05/17 04:41:30;;;;;;;3.13;2.20;;;512.90;1612.80;;;;;;4864626;29;20478;-83
2021/05/17 04:43:56;;;;;;;3.58;2.50;;;537.60;1638.40;;;;;;4856572;29;20045;-83
2021/05/17 04:46:25;;;;;;;3.53;2.45;;;537.60;1638.40;;;;;;4859598;29;20045;-82
2021/05/17 04:48:51;;;;;;;2.47;2.13;;;537.60;1638.40;;;;;;4863498;29;20044;-82
2021/05/17 04:51:21;;;;;;;4.25;2.33;;;537.60;1638.40;;;;;;4864950;29;20132;-82
2021/05/17 04:53:47;;;;;;;4.32;2.50;;;537.60;1638.40;;;;;;4877339;29;20454;-83
2021/05/17 04:56:14;;;;;;;3.70;2.72;;;537.60;1638.40;;;;;;4862894;29;20039;-82
2021/05/17 04:58:40;;;;;;;2.85;2.55;;;537.60;1638.40;;;;;;4861785;29;20041;-84
2021/05/17 05:01:06;;;;;;;3.85;2.80;;;537.60;1638.40;;;;;;4859768;29;20457;-85
2021/05/17 05:03:35;;;;;;;6.13;3.95;;;537.60;1638.40;;;;;;4885368;29;20127;-84
2021/05/17 05:06:02;;;;;;;4.38;2.45;;;537.60;1689.60;;;;;;4862479;29;20092;-82
2021/05/17 05:08:28;;;;;;;4.05;2.95;;;537.60;1638.40;;;;;;4858926;29;20037;-83
2021/05/17 05:10:55;;;;;;;4.97;2.50;;;537.60;1664.00;;;;;;4864138;29;20040;-91
2021/05/17 05:13:31;;;;;;;4.10;3.17;;;512.90;1612.80;;;;;;4859465;29;20056;-90
2021/05/17 05:15:57;;;;;;;23.17;3.60;;;537.70;1664.00;;;;;;4866128;29;20066;-86
2021/05/17 05:18:23;;;;;;;12.93;3.17;;;537.80;1664.00;;;;;;4863579;29;20038;-88
2021/05/17 05:20:49;;;;;;;14.00;3.55;;;537.80;1689.60;;;;;;4866652;29;20033;-88
2021/05/17 05:23:16;;;;;;;10.68;3.40;;;537.80;1664.00;;;;;;4848582;29;20086;-90
2021/05/17 05:28:25;;;;;;;5.22;2.90;;;537.80;1689.60;;;;;;4865546;29;20061;-90
2021/05/17 05:33:17;;;;;;;7.90;3.40;;;537.80;1664.00;;;;;;4867150;29;20033;-90
2021/05/17 05:35:43;;;;;;;6.47;3.47;;;537.80;1664.00;;;;;;4850609;29;20038;-89
2021/05/17 05:38:10;;;;;;;7.65;3.10;;;537.80;1664.00;;;;;;4849860;29;20048;-90
2021/05/17 05:40:36;;;;;;;7.38;3.10;;;537.80;1664.00;;;;;;4868460;29;20038;-89
2021/05/17 05:43:02;;;;;;;7.35;3.22;;;537.80;1638.40;;;;;;4878293;29;20037;-87
2021/05/17 05:45:28;;;;;;;6.55;3.20;;;537.80;1638.40;;;;;;4879619;29;20109;-88
2021/05/17 05:47:54;;;;;;;8.23;3.22;;;537.80;1638.40;;;;;;4857642;29;20038;-85
2021/05/17 05:50:20;;;;;;;6.68;3.40;;;537.70;1664.00;;;;;;4870946;29;20060;-91
2021/05/17 05:52:46;;;;;;;6.28;2.88;;;537.70;1638.40;;;;;;4852409;29;20048;-89
2021/05/17 05:55:13;;;;;;;10.55;4.68;;;537.70;1664.00;;;;;;4857165;29;20037;-86
2021/05/17 05:57:43;;;;;;;9.10;4.35;;;537.70;1664.00;;;;;;4868476;29;20128;-86
2021/05/17 06:00:14;;;;;;;6.80;2.83;;;537.70;1664.00;;;;;;4853481;29;20414;-86
2021/05/17 06:02:40;;;;;;;6.97;5.03;;;537.70;1664.00;;;;;;4886487;29;20041;-85
2021/05/17 06:05:07;;;;;;;4.93;3.03;;;537.80;1664.00;;;;;;4886234;29;20034;-84
2021/05/17 06:07:33;;;;;;;5.85;3.03;;;537.80;1664.00;;;;;;4862318;29;20033;-83
2021/05/17 06:09:59;;;;;;;6.63;2.72;;;537.80;1638.40;;;;;;4859660;29;20066;-84
2021/05/17 06:12:25;;;;;;;6.43;4.75;;;537.80;1664.00;;;;;;4856866;29;20045;-84
2021/05/17 06:14:58;;;;;;;9.50;4.53;;;537.80;1638.40;;;;;;4841333;29;20050;-87
2021/05/17 06:17:24;;;;;;;5.93;3.53;;;537.80;1664.00;;;;;;4848668;29;20073;-82
2021/05/17 06:19:51;;;;;;;5.22;4.68;;;537.80;1638.40;;;;;;4850041;29;20104;-85
2021/05/17 06:22:17;;;;;;;4.25;2.63;;;537.80;1689.60;;;;;;4848984;29;20049;-84
2021/05/17 06:24:43;;;;;;;6.03;3.38;;;537.80;1638.40;;;;;;4865280;29;20036;-83
2021/05/17 06:27:09;;;;;;;6.22;3.92;;;537.90;1664.00;;;;;;4866043;29;20033;-85
2021/05/17 06:29:35;;;;;;;8.00;4.72;;;537.90;1638.40;;;;;;4864100;29;20074;-90
2021/05/17 06:32:01;;;;;;;3.42;2.15;;;538.00;1664.00;;;;;;4848855;29;20033;-86
2021/05/17 06:34:27;;;;;;;5.80;4.28;;;538.00;1612.80;;;;;;4865269;29;20041;-85
2021/05/17 06:36:54;;;;;;;6.60;3.58;;;538.10;1664.00;;;;;;4849510;29;20569;-90
2021/05/17 06:39:23;;;;;;;6.35;4.10;;;538.00;1612.80;;;;;;4851144;29;20034;-82
2021/05/17 06:41:49;;;;;;;5.07;3.10;;;538.00;1638.40;;;;;;4855595;29;20040;-82
2021/05/17 06:44:15;;;;;;;4.70;3.03;;;538.00;1638.40;;;;;;4884203;29;20045;-82
2021/05/17 06:46:42;;;;;;;6.25;3.63;;;538.10;1638.40;;;;;;4866498;29;20053;-86
2021/05/17 06:49:08;;;;;;;6.93;3.33;;;538.10;1612.80;;;;;;4882792;29;20081;-84
2021/05/17 06:54:24;;;;;;;6.00;2.58;;;538.10;1612.80;;;;;;4884274;29;20048;-87
2021/05/17 06:59:31;;;;;;;4.20;2.90;;;538.10;1612.80;;;;;;4882805;29;20443;-88
2021/05/17 07:01:58;;;;;;;3.75;2.90;;;538.10;1612.80;;;;;;4866887;29;20033;-82
2021/05/17 07:04:24;;;;;;;7.15;4.30;;;538.10;1612.80;;;;;;4884063;29;20038;-83
2021/05/17 07:06:59;;;;;;;4.07;2.63;;;538.10;1612.80;;;;;;4866488;29;20089;-87
2021/05/17 07:12:11;;;;;;;8.15;4.75;;;538.10;1587.20;;;;;;4882938;29;20496;-83
2021/05/17 07:14:37;;;;;;;5.57;2.55;;;538.10;1612.80;;;;;;4866035;29;20501;-85
2021/05/17 07:17:03;;;;;;;4.75;2.90;;;538.10;1587.20;;;;;;4866113;29;20053;-81
2021/05/17 07:19:29;;;;;;;7.50;6.00;;;538.10;1587.20;;;;;;4866210;29;20171;-83
2021/05/17 07:24:39;;;;;;;3.67;2.92;;;538.10;1612.80;;;;;;4882635;29;20088;-85
2021/05/17 07:27:05;;;;;;;5.07;2.70;;;538.10;1587.20;;;;;;4865449;29;20057;-82
2021/05/17 07:29:34;;;;;;;5.95;3.40;;;538.10;1587.20;;;;;;4866365;29;20037;-83
2021/05/17 07:31:59;;;;;;;5.97;3.08;;;538.10;1587.20;;;;;;4866000;29;20037;-84
2021/05/17 07:34:26;;;;;;;5.93;4.50;;;538.10;1612.80;;;;;;4865636;29;20049;-85
2021/05/17 07:36:52;;;;;;;3.80;3.00;;;538.10;1612.80;;;;;;4865801;29;20053;-83
2021/05/17 07:39:18;;;;;;;5.00;3.70;;;538.20;1612.80;;;;;;4880203;29;20121;-86
2021/05/17 07:41:44;;;;;;;6.55;5.25;;;538.10;1612.80;;;;;;4852943;29;20509;-84
2021/05/17 07:44:10;;;;;;;5.72;3.63;;;538.10;1612.80;;;;;;4849819;29;20064;-89
2021/05/17 07:46:36;;;;;;;4.43;3.78;;;538.10;1612.80;;;;;;4847884;29;20037;-84
2021/05/17 07:49:08;;;;;;;4.88;3.65;;;538.10;1612.80;;;;;;4863762;29;20041;-84
2021/05/17 07:51:37;;;;;;;5.45;3.53;;;538.10;1587.20;;;;;;4864544;29;20029;-84
2021/05/17 07:54:03;;;;;;;4.88;4.13;;;538.20;1587.20;;;;;;4865367;29;20037;-84
2021/05/17 07:56:29;;;;;;;8.98;4.82;;;538.20;1587.20;;;;;;4865901;29;20037;-85
2021/05/17 07:58:55;;;;;;;7.60;6.13;;;538.20;1612.80;;;;;;4865972;29;20145;-87
2021/05/17 08:01:21;;;;;;;10.80;7.68;;;538.20;1612.80;;;;;;4865911;29;20064;-89
2021/05/17 08:03:47;;;;;;;6.55;4.97;;;538.30;1612.80;;;;;;4866496;29;20072;-85
2021/05/17 08:06:13;;;;;;;7.55;6.03;;;538.30;1587.20;;;;;;4865123;29;20070;-86
2021/05/17 08:08:38;;;;;;;11.95;9.45;;;538.40;1587.20;;;;;;4880825;29;20037;-86
2021/05/17 08:11:04;;;;;;;7.80;6.45;;;538.40;1612.80;;;;;;4866467;29;20064;-86
2021/05/17 08:13:30;;;;;;;9.55;6.20;;;538.40;1612.80;;;;;;4865755;29;20033;-87
2021/05/17 08:15:56;;;;;;;10.25;6.07;;;538.50;1612.80;;;;;;4865062;29;20045;-87
2021/05/17 08:18:22;;;;;;;6.70;5.50;;;538.50;1587.20;;;;;;4853686;29;20068;-85
2021/05/17 08:20:48;;;;;;;8.20;5.10;;;563.20;1587.20;;;;;;4847912;29;20045;-87
2021/05/17 08:23:16;;;;;;;7.25;5.82;;;563.30;1587.20;;;;;;4847109;29;20140;-87
2021/05/17 08:25:46;;;;;;;7.60;6.38;;;563.40;1587.20;;;;;;4863033;29;20085;-87
2021/05/17 08:28:14;;;;;;;8.85;6.13;;;563.40;1587.20;;;;;;4847714;29;20038;-88
2021/05/17 08:30:46;;;;;;;6.30;5.70;;;563.40;1587.20;;;;;;4833641;29;20041;-84
2021/05/17 08:33:16;;;;;;;7.38;5.32;;;563.50;1612.80;;;;;;4861924;29;20037;-88
2021/05/17 08:35:42;;;;;;;10.40;5.53;;;563.40;1587.20;;;;;;4847974;29;20041;-85
2021/05/17 08:38:08;;;;;;;7.10;6.22;;;563.50;1587.20;;;;;;4847169;29;20053;-85
2021/05/17 08:40:41;;;;;;;6.65;5.38;;;563.40;1612.80;;;;;;4847292;29;20064;-92
2021/05/17 08:43:06;;;;;;;7.28;6.13;;;563.40;1587.20;;;;;;4848975;29;20126;-86
2021/05/17 08:45:34;;;;;;;7.55;6.22;;;563.40;1612.80;;;;;;4847018;29;20073;-86
2021/05/17 08:48:00;;;;;;;6.95;5.57;;;563.40;1612.80;;;;;;4848010;29;20068;-85
2021/05/17 08:50:26;;;;;;;9.60;8.60;;;563.60;1612.80;;;;;;4848352;29;20037;-87
2021/05/17 08:52:56;;;;;;;7.15;5.82;;;563.40;1638.40;;;;;;4846995;29;20075;-89
2021/05/17 08:55:21;;;;;;;7.22;5.95;;;563.50;1612.80;;;;;;4849197;29;20045;-87
2021/05/17 08:57:53;;;;;;;6.75;5.88;;;563.50;1612.80;;;;;;4844403;29;20136;-90
2021/05/17 09:00:21;;;;;;;7.90;7.10;;;563.50;1587.20;;;;;;4846461;29;20105;-84
2021/05/17 09:02:53;;;;;;;8.63;6.38;;;563.60;1664.00;;;;;;4846348;29;20554;-83
2021/05/17 09:05:31;;;;;;;8.48;7.55;;;563.70;1587.20;;;;;;4861450;29;20129;-90
2021/05/17 09:08:02;;;;;;;10.18;7.45;;;563.80;1587.20;;;;;;4846431;29;20080;-86
2021/05/17 09:10:36;;;;;;;7.95;5.55;;;563.80;1612.80;;;;;;4860927;29;20512;-85
2021/05/17 09:13:15;;;;;;;8.88;6.93;;;564.00;1561.60;;;;;;4860688;29;20469;-84
2021/05/17 09:15:51;;;;;;;8.07;6.43;;;564.00;1536.00;;;;;;4862221;29;20041;-86
2021/05/17 09:18:22;;;;;;;9.85;7.65;;;564.10;1561.60;;;;;;4845951;29;20066;-86
2021/05/17 09:20:50;;;;;;;8.50;6.18;;;564.10;1561.60;;;;;;4846826;29;20033;-91
2021/05/17 09:23:29;;;;;;;12.15;7.55;;;564.10;1536.00;;;;;;4863491;29;20042;-81
2021/05/17 09:26:14;;;;;;;11.35;7.65;;;564.10;1536.00;;;;;;4861435;29;20490;-83
2021/05/17 09:28:45;;;;;;;11.00;8.43;;;564.10;1536.00;;;;;;4847062;29;20034;-89
2021/05/17 09:31:17;;;;;;;11.55;7.50;;;588.80;1536.00;;;;;;4846739;29;20041;-89
2021/05/17 09:33:50;;;;;;;15.07;7.38;;;589.00;1536.00;;;;;;4846369;29;20090;-85
2021/05/17 09:36:22;;;;;;;11.23;7.32;;;589.00;1510.40;;;;;;4847368;29;20034;-84
2021/05/17 09:39:18;;;;;;;12.60;8.68;;;589.00;1510.40;;;;;;4846745;29;20375;-83
2021/05/17 09:41:51;;;;;;;11.63;7.68;;;589.00;1510.40;;;;;;4845018;29;20034;-83
2021/05/17 09:44:19;;;;;;;13.55;7.93;;;589.00;1536.00;;;;;;4847323;29;20498;-88
2021/05/17 09:47:06;;;;;;;12.25;7.55;;;588.90;1510.40;;;;;;4846685;29;20097;-87
2021/05/17 09:49:38;;;;;;;13.75;8.90;;;588.90;1510.40;;;;;;4846905;29;20109;-83
2021/05/17 09:52:12;;;;;;;14.05;8.90;;;588.90;1510.40;;;;;;4863171;29;20026;-83
2021/05/17 09:54:53;;;;;;;10.45;7.55;;;588.80;1510.40;;;;;;4865302;29;20046;-83
2021/05/17 09:57:30;;;;;;;9.77;7.15;;;588.90;1536.00;;;;;;4865381;29;20041;-85
2021/05/17 10:00:08;;;;;;;10.07;7.78;;;588.80;1536.00;;;;;;4863346;29;20041;-83
2021/05/17 10:02:35;;;;;;;14.82;8.05;;;588.80;1536.00;;;;;;4878872;29;20063;-83
2021/05/17 10:05:19;;;;;;;10.80;7.72;;;588.80;1510.40;;;;;;4859676;29;20097;-83
2021/05/17 10:07:50;;;;;;;10.75;7.57;;;588.80;1510.40;;;;;;4859163;29;20113;-83
2021/05/17 10:10:16;;;;;;;11.55;7.35;;;588.80;1510.40;;;;;;4866200;29;20113;-86
2021/05/17 10:12:42;;;;;;;13.50;8.70;;;588.80;1536.00;;;;;;4863161;29;20050;-86
2021/05/17 10:15:14;;;;;;;11.70;8.05;;;588.90;1536.00;;;;;;4849549;29;20136;-90
2021/05/17 10:17:40;;;;;;;13.30;8.90;;;589.00;1510.40;;;;;;4849692;29;20068;-88
2021/05/17 10:20:16;;;;;;;14.43;9.23;;;589.10;1510.40;;;;;;4849961;29;20033;-90
2021/05/17 10:22:46;;;;;;;15.23;9.65;;;589.10;1484.80;;;;;;4853005;29;20053;-88
2021/05/17 10:25:19;;;;;;;12.13;8.85;;;589.10;1484.80;;;;;;4849550;29;20042;-88
2021/05/17 10:28:19;;;;;;;12.10;8.90;;;589.20;1484.80;;;;;;4850711;29;20037;-86
2021/05/17 10:30:45;;;;;;;11.45;9.00;;;589.30;1484.80;;;;;;4841962;29;20053;-84
2021/05/17 10:33:16;;;;;;;11.75;8.68;;;589.30;1484.80;;;;;;4849229;29;20045;-85
2021/05/17 10:35:42;;;;;;;10.82;8.88;;;589.50;1484.80;;;;;;4867327;29;20037;-82
2021/05/17 10:38:35;;;;;;;10.75;8.63;;;589.40;1484.80;;;;;;4866356;29;20067;-83
2021/05/17 10:46:50;;;;;;;10.93;8.18;;;589.70;1433.60;;;;;;4884519;29;20056;-83
2021/05/17 10:49:34;;;;;;;11.75;7.95;;;614.50;1433.60;;;;;;4868572;29;20033;-83
2021/05/17 10:52:06;;;;;;;10.45;9.25;;;614.70;1433.60;;;;;;4884428;29;20044;-85
2021/05/17 10:54:35;;;;;;;10.07;8.50;;;614.80;1408.00;;;;;;4868064;29;20049;-82
2021/05/17 10:57:26;;;;;;;9.68;7.90;;;614.90;1408.00;;;;;;4866379;29;20073;-84
2021/05/17 11:02:43;;;;;;;10.70;7.32;;;614.90;1382.40;;;;;;4896124;29;20076;-85
2021/05/17 11:05:14;;;;;;;9.65;7.63;;;615.00;1382.40;;;;;;4900390;29;20039;-83
2021/05/17 11:07:58;;;;;;;9.82;7.43;;;614.90;1382.40;;;;;;4887521;29;20041;-82
2021/05/17 11:10:35;;;;;;;9.88;6.72;;;614.80;1382.40;;;;;;4885760;29;20071;-88
2021/05/17 11:13:12;;;;;;;8.38;6.85;;;614.80;1408.00;;;;;;4885733;29;20033;-87
2021/05/17 11:16:04;;;;;;;9.40;7.18;;;614.70;1408.00;;;;;;4894786;29;20044;-86
2021/05/17 11:18:38;;;;;;;8.40;7.07;;;614.60;1408.00;;;;;;4886555;29;20055;-90
2021/05/17 11:21:14;;;;;;;9.63;6.55;;;614.50;1408.00;;;;;;4892899;29;20033;-89
2021/05/17 11:23:43;;;;;;;9.05;6.90;;;614.50;1408.00;;;;;;4909440;29;20413;-92
2021/05/17 11:26:11;;;;;;;7.93;6.43;;;614.40;1433.60;;;;;;4892634;29;20028;-83
2021/05/17 11:28:37;;;;;;;7.90;6.25;;;614.40;1433.60;;;;;;4892397;29;20037;-90
2021/05/17 11:31:19;;;;;;;8.55;5.80;;;589.70;1433.60;;;;;;4876383;29;20142;-87
2021/05/17 11:34:03;;;;;;;8.63;6.20;;;589.70;1433.60;;;;;;4884298;29;20037;-91
2021/05/17 11:36:37;;;;;;;9.20;6.68;;;589.60;1433.60;;;;;;4868221;29;20037;-83
2021/05/17 11:39:04;;;;;;;9.30;6.10;;;589.50;1459.20;;;;;;4873108;29;20060;-84
2021/05/17 11:41:32;;;;;;;8.52;5.93;;;589.50;1459.20;;;;;;4892185;29;20041;-86
2021/05/17 11:44:07;;;;;;;7.65;6.53;;;589.50;1459.20;;;;;;4865206;29;20052;-92
2021/05/17 11:46:34;;;;;;;9.02;6.43;;;589.50;1459.20;;;;;;4870759;29;20073;-86
2021/05/17 11:49:26;;;;;;;8.45;6.60;;;589.50;1459.20;;;;;;4876977;29;20481;-94
2021/05/17 11:51:59;;;;;;;8.48;6.55;;;589.50;1459.20;;;;;;4871000;29;20033;-91
2021/05/17 11:54:43;;;;;;;7.72;5.72;;;589.50;1459.20;;;;;;4884214;29;20053;-83
2021/05/17 11:57:10;;;;;;;7.10;5.75;;;589.50;1459.20;;;;;;4884705;29;20494;-93
2021/05/17 11:59:37;;;;;;;8.82;6.10;;;589.50;1459.20;;;;;;4868937;29;20802;-93
2021/05/17 12:02:10;;;;;;;8.30;5.43;;;589.60;1459.20;;;;;;4874192;29;20045;-83
2021/05/17 12:04:38;;;;;;;8.88;5.93;;;589.60;1459.20;;;;;;4868312;29;20037;-92
2021/05/17 12:07:15;;;;;;;7.88;5.60;;;589.60;1459.20;;;;;;4869301;29;20073;-90
2021/05/17 12:09:42;;;;;;;9.05;6.07;;;589.60;1459.20;;;;;;4872082;29;20037;-91
2021/05/17 12:12:10;;;;;;;7.82;5.30;;;589.50;1459.20;;;;;;4869396;29;20398;-92
2021/05/17 12:14:50;;;;;;;8.10;5.88;;;589.30;1459.20;;;;;;4828522;29;20045;-92
2021/05/17 12:17:20;;;;;;;10.90;6.85;;;589.50;1459.20;;;;;;4812933;29;20058;-93
2021/05/17 12:20:00;;;;;;;6.07;5.15;;;589.40;1459.20;;;;;;4811458;29;20049;-93
2021/05/17 12:22:36;;;;;;;8.63;6.40;;;589.50;1459.20;;;;;;4816500;29;20073;-92
2021/05/17 12:25:20;;;;;;;6.72;5.30;;;589.40;1459.20;;;;;;4815893;29;20065;-90
2021/05/17 12:27:48;;;;;;;7.20;5.57;;;589.40;1459.20;;;;;;4819378;29;20031;-93
2021/05/17 12:30:24;;;;;;;6.47;4.88;;;589.30;1459.20;;;;;;4816834;29;20045;-93
2021/05/17 12:32:55;;;;;;;7.47;4.90;;;589.30;1459.20;;;;;;4822652;29;20031;-88
2021/05/17 12:35:20;;;;;;;7.07;5.20;;;589.20;1484.80;;;;;;4823375;29;20053;-92
2021/05/17 12:37:46;;;;;;;6.30;4.70;;;589.20;1484.80;;;;;;4850625;29;20042;-90
2021/05/17 12:40:21;;;;;;;8.15;5.90;;;589.20;1484.80;;;;;;4850037;29;20475;-92
2021/05/17 12:43:08;;;;;;;11.00;5.72;;;589.20;1484.80;;;;;;4849225;29;20038;-92
2021/05/17 12:45:55;;;;;;;7.78;6.07;;;589.20;1484.80;;;;;;4820983;29;20129;-84
2021/05/17 12:48:48;;;;;;;7.30;5.35;;;589.20;1484.80;;;;;;4823878;29;20045;-85
2021/05/17 12:51:17;;;;;;;6.78;5.50;;;589.20;1484.80;;;;;;4831622;29;20410;-90
2021/05/17 12:53:43;;;;;;;7.88;5.93;;;589.20;1484.80;;;;;;4894032;29;20550;-93
2021/05/17 12:56:09;;;;;;;6.95;5.13;;;589.30;1484.80;;;;;;4879775;29;20109;-83
2021/05/17 12:58:36;;;;;;;6.88;5.05;;;589.30;1484.80;;;;;;4878536;29;20037;-89
2021/05/17 13:01:09;;;;;;;5.38;4.80;;;589.30;1484.80;;;;;;4867350;29;20045;-85
2021/05/17 13:03:40;;;;;;;7.90;5.95;;;589.30;1459.20;;;;;;4880400;29;20052;-83
2021/05/17 13:06:13;;;;;;;6.85;5.20;;;589.40;1459.20;;;;;;4877155;29;20033;-85
2021/05/17 13:08:51;;;;;;;6.57;5.18;;;589.70;1433.60;;;;;;4890871;29;20037;-95
2021/05/17 13:11:37;;;;;;;8.10;5.07;;;614.80;1408.00;;;;;;4886686;29;20180;-87